createdAt,value
2022-07-30T00:03:23.344Z,16.66
2022-07-30T00:07:26.483Z,16.66
2022-07-30T00:11:29.542Z,16.62
2022-07-30T00:15:34.035Z,16.51
2022-07-30T00:19:37.075Z,16.47
2022-07-30T00:23:40.175Z,16.38
2022-07-30T00:28:03.158Z,16.32
2022-07-30T00:32:07.924Z,16.32
2022-07-30T00:36:10.988Z,16.28
2022-07-30T00:40:14.032Z,16.30
2022-07-30T00:44:17.078Z,16.32
2022-07-30T00:48:21.431Z,16.27
2022-07-30T00:52:24.568Z,16.30
2022-07-30T00:56:27.686Z,16.30
2022-07-30T01:06:31.941Z,16.28
2022-07-30T01:10:35.267Z,16.25
2022-07-30T01:14:39.178Z,16.16
2022-07-30T01:19:01.738Z,16.20
2022-07-30T01:23:14.211Z,16.15
2022-07-30T01:27:20.770Z,16.14
2022-07-30T01:31:27.150Z,16.08
2022-07-30T01:35:33.327Z,16.04
2022-07-30T01:39:37.359Z,16.05
2022-07-30T01:43:43.080Z,15.94
2022-07-30T01:47:47.695Z,15.98
2022-07-30T01:51:53.635Z,15.97
2022-07-30T01:55:57.573Z,15.94
2022-07-30T02:00:05.105Z,15.87
2022-07-30T02:04:19.736Z,15.87
2022-07-30T02:08:28.977Z,15.86
2022-07-30T02:12:34.878Z,15.75
2022-07-30T02:16:50.397Z,15.62
2022-07-30T02:20:59.810Z,15.60
2022-07-30T02:25:07.677Z,15.60
2022-07-30T02:29:12.352Z,15.44
2022-07-30T02:33:20.294Z,15.52
2022-07-30T02:37:40.994Z,15.51
2022-07-30T02:41:49.954Z,15.50
2022-07-30T02:45:54.846Z,15.38
2022-07-30T02:50:06.439Z,15.29
2022-07-30T02:54:12.622Z,15.26
2022-07-30T02:58:18.430Z,15.19
2022-07-30T03:02:25.637Z,15.22
2022-07-30T03:06:34.725Z,15.11
2022-07-30T03:10:38.659Z,15.11
2022-07-30T03:14:42.001Z,15.03
2022-07-30T03:18:46.552Z,15.03
2022-07-30T03:22:54.464Z,14.98
2022-07-30T03:27:01.008Z,15.04
2022-07-30T03:31:05.779Z,15.04
2022-07-30T03:35:16.750Z,15.10
2022-07-30T03:39:24.398Z,15.25
2022-07-30T03:43:33.094Z,15.32
2022-07-30T03:47:39.740Z,15.47
2022-07-30T03:51:43.572Z,15.57
2022-07-30T03:55:48.528Z,15.68
2022-07-30T04:00:15.167Z,15.81
2022-07-30T04:04:23.722Z,15.82
2022-07-30T04:08:28.910Z,15.88
2022-07-30T04:12:33.712Z,16.02
2022-07-30T04:16:44.197Z,16.06
2022-07-30T04:20:53.105Z,16.10
2022-07-30T04:24:57.675Z,16.13
2022-07-30T04:29:04.573Z,16.18
2022-07-30T04:33:08.989Z,16.15
2022-07-30T04:37:12.006Z,16.12
2022-07-30T04:41:15.496Z,16.09
2022-07-30T04:45:40.386Z,16.12
2022-07-30T04:49:44.771Z,16.07
2022-07-30T04:53:50.040Z,16.14
2022-07-30T04:57:56.152Z,16.10
2022-07-30T05:02:01.636Z,16.02
2022-07-30T05:06:06.710Z,16.10
2022-07-30T05:10:13.825Z,16.18
2022-07-30T05:14:18.037Z,16.15
2022-07-30T05:18:23.288Z,16.12
2022-07-30T05:22:30.018Z,16.13
2022-07-30T05:26:33.220Z,16.14
2022-07-30T05:30:36.629Z,16.13
2022-07-30T05:34:41.339Z,16.17
2022-07-30T05:38:44.413Z,16.11
2022-07-30T05:43:07.763Z,16.08
2022-07-30T05:47:10.933Z,16.19
2022-07-30T05:51:17.042Z,16.36
2022-07-30T05:55:20.402Z,16.32
2022-07-30T05:59:30.884Z,16.16
2022-07-30T06:03:46.592Z,16.37
2022-07-30T06:08:10.290Z,16.34
2022-07-30T06:12:13.560Z,16.36
2022-07-30T06:16:17.584Z,16.60
2022-07-30T06:20:22.171Z,16.71
2022-07-30T06:24:49.186Z,16.91
2022-07-30T06:28:59.246Z,17.24
2022-07-30T06:33:06.398Z,17.24
2022-07-30T06:37:09.455Z,17.39
2022-07-30T06:41:15.752Z,17.73
2022-07-30T06:45:28.376Z,17.15
2022-07-30T06:49:52.308Z,17.21
2022-07-30T06:53:55.407Z,17.70
2022-07-30T06:58:25.815Z,18.29
2022-07-30T07:02:52.687Z,18.44
2022-07-30T07:07:12.177Z,18.54
2022-07-30T07:11:15.997Z,18.63
2022-07-30T07:15:36.338Z,18.69
2022-07-30T07:20:01.036Z,18.42
2022-07-30T07:24:05.516Z,18.31
2022-07-30T07:28:41.411Z,18.42
2022-07-30T07:32:45.895Z,18.60
2022-07-30T07:36:50.116Z,18.91
2022-07-30T07:40:53.273Z,19.12
2022-07-30T07:44:56.333Z,19.26
2022-07-30T07:49:01.653Z,19.70
2022-07-30T07:53:19.055Z,20.16
2022-07-30T07:57:22.745Z,19.83
2022-07-30T08:01:25.898Z,19.74
2022-07-30T08:05:59.051Z,19.63
2022-07-30T08:10:28.787Z,20.00
2022-07-30T08:14:50.419Z,20.25
2022-07-30T08:19:12.235Z,20.25
2022-07-30T08:23:27.125Z,19.97
2022-07-30T08:27:30.957Z,20.66
2022-07-30T08:31:34.153Z,20.61
2022-07-30T08:35:38.056Z,20.30
2022-07-30T08:39:53.111Z,20.58
2022-07-30T08:43:57.072Z,20.81
2022-07-30T08:48:02.107Z,21.19
2022-07-30T08:52:16.610Z,21.41
2022-07-30T08:56:34.146Z,21.71
2022-07-30T09:00:37.235Z,22.31
2022-07-30T09:04:40.400Z,22.19
2022-07-30T09:08:43.681Z,22.85
2022-07-30T09:12:48.876Z,23.33
2022-07-30T09:16:57.803Z,22.83
2022-07-30T09:21:02.977Z,22.92
2022-07-30T09:25:06.292Z,23.39
2022-07-30T09:29:33.977Z,23.84
2022-07-30T09:33:55.916Z,23.61
2022-07-30T09:38:17.967Z,23.40
2022-07-30T09:42:41.171Z,24.48
2022-07-30T09:46:51.841Z,24.44
2022-07-30T09:51:16.148Z,23.81
2022-07-30T09:55:31.995Z,24.29
2022-07-30T09:59:36.427Z,24.57
2022-07-30T10:03:44.369Z,24.76
2022-07-30T10:08:19.345Z,25.02
2022-07-30T10:12:26.630Z,26.01
2022-07-30T10:16:30.725Z,24.04
2022-07-30T10:20:36.664Z,25.64
2022-07-30T10:24:58.920Z,25.43
2022-07-30T10:29:22.067Z,25.74
2022-07-30T10:33:40.250Z,25.79
2022-07-30T10:37:49.462Z,26.18
2022-07-30T10:42:04.718Z,25.84
2022-07-30T10:46:22.892Z,25.76
2022-07-30T10:50:27.628Z,26.35
2022-07-30T10:54:44.600Z,27.10
2022-07-30T10:59:07.734Z,27.23
2022-07-30T11:03:23.594Z,26.62
2022-07-30T11:07:44.711Z,26.82
2022-07-30T11:12:15.889Z,27.24
2022-07-30T11:16:15.415Z,26.05
2022-07-30T11:20:21.090Z,25.84
2022-07-30T11:24:45.399Z,27.33
2022-07-30T11:28:51.113Z,28.04
2022-07-30T11:32:56.687Z,27.14
2022-07-30T11:37:18.182Z,27.72
2022-07-30T11:41:26.426Z,27.55
2022-07-30T11:45:30.976Z,26.69
2022-07-30T11:49:36.921Z,27.56
2022-07-30T11:53:39.954Z,28.43
2022-07-30T11:57:44.264Z,28.11
2022-07-30T12:01:52.649Z,26.97
2022-07-30T12:05:56.277Z,27.16
2022-07-30T12:10:13.693Z,27.28
2022-07-30T12:14:19.266Z,27.33
2022-07-30T12:18:28.409Z,28.20
2022-07-30T12:22:35.903Z,28.59
2022-07-30T12:26:39.181Z,29.01
2022-07-30T12:30:42.586Z,29.28
2022-07-30T12:34:56.856Z,29.50
2022-07-30T12:39:00.276Z,29.52
2022-07-30T12:43:03.353Z,28.67
2022-07-30T12:47:19.137Z,29.79
2022-07-30T12:51:25.543Z,27.44
2022-07-30T12:55:33.256Z,27.62
2022-07-30T12:59:38.811Z,27.59
2022-07-30T13:03:43.186Z,26.99
2022-07-30T13:07:58.863Z,27.56
2022-07-30T13:12:02.016Z,26.91
2022-07-30T13:16:06.918Z,28.19
2022-07-30T13:20:11.555Z,27.05
2022-07-30T13:24:17.897Z,27.39
2022-07-30T13:28:21.807Z,26.57
2022-07-30T13:32:24.804Z,27.42
2022-07-30T13:36:28.120Z,26.93
2022-07-30T13:40:33.176Z,27.70
2022-07-30T13:44:36.282Z,27.76
2022-07-30T13:48:39.911Z,26.94
2022-07-30T13:52:43.054Z,28.47
2022-07-30T13:56:47.574Z,27.52
2022-07-30T14:00:51.187Z,28.64
2022-07-30T14:04:57.329Z,29.03
2022-07-30T14:09:04.669Z,29.42
2022-07-30T14:13:19.440Z,29.14
2022-07-30T14:17:29.434Z,28.85
2022-07-30T14:21:36.674Z,28.70
2022-07-30T14:25:45.304Z,27.69
2022-07-30T14:29:55.438Z,29.10
2022-07-30T14:34:02.226Z,29.58
2022-07-30T14:38:08.195Z,29.75
2022-07-30T14:42:14.560Z,29.18
2022-07-30T14:46:23.805Z,29.19
2022-07-30T14:50:30.506Z,28.45
2022-07-30T14:54:37.059Z,28.79
2022-07-30T14:58:44.691Z,26.95
2022-07-30T15:02:52.378Z,28.26
2022-07-30T15:06:58.037Z,28.24
2022-07-30T15:11:05.903Z,28.60
2022-07-30T15:15:14.713Z,28.61
2022-07-30T15:19:23.732Z,29.85
2022-07-30T15:23:31.070Z,29.85
2022-07-30T15:27:38.762Z,28.02
2022-07-30T15:31:47.213Z,29.63
2022-07-30T15:35:57.907Z,29.59
2022-07-30T15:40:04.553Z,27.92
2022-07-30T15:44:15.363Z,27.60
2022-07-30T15:48:27.402Z,26.91
2022-07-30T15:52:40.552Z,27.75
2022-07-30T15:56:50.916Z,28.65
2022-07-30T16:00:58.873Z,28.90
2022-07-30T16:05:05.498Z,28.77
2022-07-30T16:09:18.570Z,28.67
2022-07-30T16:13:26.730Z,28.33
2022-07-30T16:17:34.650Z,28.38
2022-07-30T16:21:42.274Z,28.08
2022-07-30T16:25:49.334Z,29.10
2022-07-30T16:29:56.577Z,28.84
2022-07-30T16:34:03.787Z,28.39
2022-07-30T16:38:11.663Z,28.15
2022-07-30T16:42:24.967Z,27.34
2022-07-30T16:46:33.086Z,28.45
2022-07-30T16:50:41.665Z,27.99
2022-07-30T16:54:48.811Z,28.82
2022-07-30T16:58:58.658Z,27.39
2022-07-30T17:03:07.136Z,27.19
2022-07-30T17:07:14.341Z,27.07
2022-07-30T17:11:47.669Z,26.42
2022-07-30T17:15:53.858Z,26.56
2022-07-30T17:20:03.437Z,25.82
2022-07-30T17:24:15.225Z,25.86
2022-07-30T17:28:27.074Z,25.74
2022-07-30T17:32:37.964Z,25.84
2022-07-30T17:36:52.285Z,25.99
2022-07-30T17:41:03.016Z,26.12
2022-07-30T17:45:13.197Z,26.50
2022-07-30T17:49:26.221Z,26.57
2022-07-30T17:53:35.117Z,26.09
2022-07-30T17:57:43.827Z,25.66
2022-07-30T18:01:55.040Z,25.62
2022-07-30T18:06:05.579Z,25.57
2022-07-30T18:10:16.096Z,25.45
2022-07-30T18:14:25.108Z,24.92
2022-07-30T18:18:33.192Z,24.95
2022-07-30T18:22:43.263Z,24.82
2022-07-30T18:26:51.004Z,24.69
2022-07-30T18:30:56.605Z,24.56
2022-07-30T18:35:00.909Z,24.38
2022-07-30T18:39:06.954Z,24.30
2022-07-30T18:43:11.200Z,24.29
2022-07-30T18:47:15.387Z,24.22
2022-07-30T18:51:19.337Z,24.31
2022-07-30T18:55:25.131Z,24.22
2022-07-30T18:59:33.533Z,24.06
2022-07-30T19:03:41.421Z,23.97
2022-07-30T19:07:57.153Z,23.72
2022-07-30T19:12:10.724Z,23.63
2022-07-30T19:16:20.023Z,23.41
2022-07-30T19:20:28.618Z,23.40
2022-07-30T19:24:38.062Z,23.37
2022-07-30T19:28:47.742Z,23.15
2022-07-30T19:32:54.642Z,23.07
2022-07-30T19:37:02.355Z,22.89
2022-07-30T19:41:08.574Z,23.01
2022-07-30T19:45:16.171Z,23.03
2022-07-30T19:49:22.997Z,22.97
2022-07-30T19:53:40.333Z,22.97
2022-07-30T19:57:54.324Z,22.96
2022-07-30T20:02:05.859Z,22.92
2022-07-30T20:06:15.519Z,22.84
2022-07-30T20:10:20.023Z,22.79
2022-07-30T20:14:25.838Z,22.85
2022-07-30T20:18:33.409Z,22.73
2022-07-30T20:22:40.961Z,22.58
2022-07-30T20:26:48.161Z,22.51
2022-07-30T20:30:53.990Z,22.57
2022-07-30T20:35:07.177Z,22.47
2022-07-30T20:39:18.527Z,22.33
2022-07-30T20:43:26.072Z,22.35
2022-07-30T20:47:38.732Z,22.29
2022-07-30T20:51:49.459Z,22.34
2022-07-30T20:55:58.273Z,22.30
2022-07-30T21:00:09.972Z,22.34
2022-07-30T21:04:23.781Z,22.30
2022-07-30T21:08:47.425Z,22.20
2022-07-30T21:17:26.897Z,22.28
2022-07-30T21:21:41.719Z,22.26
2022-07-30T21:26:13.370Z,22.30
2022-07-30T21:30:20.472Z,22.29
2022-07-30T21:34:40.095Z,22.22
2022-07-30T21:38:52.893Z,21.98
2022-07-30T21:43:03.051Z,21.96
2022-07-30T21:47:17.285Z,21.89
2022-07-30T21:51:27.292Z,21.81
2022-07-30T21:55:52.890Z,21.78
2022-07-30T22:00:01.691Z,21.83
2022-07-30T22:04:19.335Z,21.79
2022-07-30T22:08:30.452Z,21.79
2022-07-30T22:12:45.650Z,21.84
2022-07-30T22:16:53.932Z,21.79
2022-07-30T22:21:02.648Z,21.78
2022-07-30T22:25:11.649Z,21.69
2022-07-30T22:29:18.306Z,21.70
2022-07-30T22:33:30.027Z,21.66
2022-07-30T22:37:42.352Z,21.65
2022-07-30T22:41:52.933Z,21.63
2022-07-30T22:46:02.132Z,21.57
2022-07-30T22:50:11.751Z,21.30
2022-07-30T22:54:20.530Z,21.31
2022-07-30T22:58:31.293Z,21.23
2022-07-30T23:02:39.153Z,21.32
2022-07-30T23:06:49.952Z,21.34
2022-07-30T23:11:00.241Z,21.28
2022-07-30T23:12:26.913Z,22.28
2022-07-30T23:15:07.718Z,21.18
2022-07-30T23:19:22.036Z,21.12
2022-07-30T23:23:37.275Z,21.05
2022-07-30T23:27:48.780Z,20.96
2022-07-30T23:31:56.240Z,20.88
2022-07-30T23:36:07.339Z,20.92
2022-07-30T23:40:20.663Z,20.97
2022-07-30T23:44:36.770Z,20.96
2022-07-30T23:48:46.043Z,20.89
2022-07-30T23:52:55.835Z,20.95
2022-07-30T23:57:08.125Z,20.97
